createdAt,value
2022-11-14T00:00:48.537Z,98822.21
2022-11-14T00:03:35.069Z,98824.95
2022-11-14T00:06:21.646Z,98825.43
2022-11-14T00:09:08.492Z,98821.61
2022-11-14T00:11:56.260Z,98820.35
2022-11-14T00:14:43.084Z,98819.06
2022-11-14T00:17:29.728Z,98816.98
2022-11-14T00:20:16.220Z,98824.20
2022-11-14T00:23:03.339Z,98828.98
2022-11-14T00:25:51.116Z,98833.55
2022-11-14T00:28:37.749Z,98830.67
2022-11-14T00:31:24.636Z,98828.96
2022-11-14T00:34:11.450Z,98825.45
2022-11-14T00:36:58.302Z,98820.32
2022-11-14T00:39:44.962Z,98819.33
2022-11-14T00:42:31.462Z,98818.73
2022-11-14T00:45:18.239Z,98818.83
2022-11-14T00:48:05.273Z,98818.75
2022-11-14T00:50:51.644Z,98818.05
2022-11-14T00:53:38.238Z,98817.49
2022-11-14T00:56:25.185Z,98819.81
2022-11-14T00:59:11.622Z,98816.65
2022-11-14T01:01:58.525Z,98816.49
2022-11-14T01:04:45.433Z,98819.19
2022-11-14T01:07:32.243Z,98816.27
2022-11-14T01:10:19.982Z,98815.77
2022-11-14T01:13:06.980Z,98813.19
2022-11-14T01:15:55.046Z,98813.90
2022-11-14T01:18:42.369Z,98818.89
2022-11-14T01:21:29.284Z,98814.07
2022-11-14T01:24:16.288Z,98816.20
2022-11-14T01:27:03.195Z,98814.20
2022-11-14T01:29:50.529Z,98809.38
2022-11-14T01:32:36.941Z,98804.54
2022-11-14T01:35:23.584Z,98803.20
2022-11-14T01:38:14.543Z,98798.95
2022-11-14T01:41:01.713Z,98794.95
2022-11-14T01:43:48.941Z,98798.10
2022-11-14T01:46:39.993Z,98795.58
2022-11-14T01:49:34.695Z,98787.91
2022-11-14T01:52:28.933Z,98784.61
2022-11-14T01:55:15.902Z,98787.70
2022-11-14T01:58:03.259Z,98791.59
2022-11-14T02:00:50.200Z,98792.17
2022-11-14T02:03:39.695Z,98793.13
2022-11-14T02:06:30.579Z,98792.05
2022-11-14T02:09:17.310Z,98795.40
2022-11-14T02:12:08.903Z,98790.64
2022-11-14T02:14:57.436Z,98789.65
2022-11-14T02:17:44.779Z,98791.23
2022-11-14T02:20:37.339Z,98792.95
2022-11-14T02:23:29.164Z,98796.88
2022-11-14T02:26:20.104Z,98798.10
2022-11-14T02:29:09.124Z,98800.36
2022-11-14T02:31:55.490Z,98800.27
2022-11-14T02:34:42.272Z,98800.21
2022-11-14T02:37:29.089Z,98796.05
2022-11-14T02:40:15.642Z,98795.11
2022-11-14T02:43:01.996Z,98796.23
2022-11-14T02:45:48.800Z,98795.23
2022-11-14T02:48:35.634Z,98795.00
2022-11-14T02:51:22.337Z,98792.55
2022-11-14T02:54:08.961Z,98793.77
2022-11-14T02:56:55.782Z,98788.85
2022-11-14T02:59:42.609Z,98783.61
2022-11-14T03:02:29.701Z,98782.20
2022-11-14T03:05:16.801Z,98778.77
2022-11-14T03:08:03.518Z,98770.62
2022-11-14T03:10:50.762Z,98766.72
2022-11-14T03:13:38.514Z,98762.80
2022-11-14T03:16:24.974Z,98759.31
2022-11-14T03:19:11.665Z,98764.23
2022-11-14T03:21:58.390Z,98764.75
2022-11-14T03:24:45.086Z,98766.35
2022-11-14T03:27:31.759Z,98767.70
2022-11-14T03:30:18.563Z,98763.91
2022-11-14T03:33:04.928Z,98763.11
2022-11-14T03:35:53.199Z,98752.98
2022-11-14T03:38:39.978Z,98763.33
2022-11-14T03:41:26.630Z,98761.66
2022-11-14T03:44:13.656Z,98758.25
2022-11-14T03:47:00.096Z,98758.70
2022-11-14T03:49:46.442Z,98759.80
2022-11-14T03:52:33.194Z,98750.30
2022-11-14T03:55:19.831Z,98750.13
2022-11-14T03:58:06.442Z,98749.98
2022-11-14T04:00:56.044Z,98746.90
2022-11-14T04:03:42.984Z,98750.37
2022-11-14T04:06:30.284Z,98750.91
2022-11-14T04:09:16.927Z,98748.37
2022-11-14T04:12:04.333Z,98745.34
2022-11-14T04:14:51.200Z,98740.44
2022-11-14T04:17:39.958Z,98743.05
2022-11-14T04:20:26.982Z,98746.91
2022-11-14T04:23:13.681Z,98743.55
2022-11-14T04:26:00.500Z,98746.43
2022-11-14T04:28:47.164Z,98748.45
2022-11-14T04:31:34.185Z,98748.95
2022-11-14T04:34:20.874Z,98739.95
2022-11-14T04:37:07.806Z,98744.45
2022-11-14T04:39:59.059Z,98739.89
2022-11-14T04:42:45.851Z,98738.48
2022-11-14T04:45:32.719Z,98738.84
2022-11-14T04:48:19.477Z,98737.31
2022-11-14T04:51:06.581Z,98737.33
2022-11-14T04:53:53.806Z,98738.74
2022-11-14T04:56:40.617Z,98738.44
2022-11-14T04:59:27.243Z,98734.88
2022-11-14T05:02:14.051Z,98734.36
2022-11-14T05:05:00.943Z,98735.92
2022-11-14T05:07:47.711Z,98741.30
2022-11-14T05:10:34.572Z,98740.34
2022-11-14T05:13:21.625Z,98742.19
2022-11-14T05:16:08.737Z,98744.64
2022-11-14T05:18:58.424Z,98747.77
2022-11-14T05:21:45.651Z,98749.55
2022-11-14T05:24:33.072Z,98749.17
2022-11-14T05:27:20.042Z,98740.54
2022-11-14T05:30:07.899Z,98751.85
2022-11-14T05:32:54.553Z,98746.40
2022-11-14T05:35:41.412Z,98746.92
2022-11-14T05:38:29.196Z,98741.66
2022-11-14T05:41:20.174Z,98740.30
2022-11-14T05:44:07.290Z,98742.16
2022-11-14T05:46:53.919Z,98748.34
2022-11-14T05:49:40.784Z,98752.40
2022-11-14T05:52:28.010Z,98757.79
2022-11-14T05:55:15.088Z,98760.91
2022-11-14T05:58:02.059Z,98761.09
2022-11-14T06:00:53.993Z,98761.80
2022-11-14T06:03:44.971Z,98762.81
2022-11-14T06:06:33.002Z,98762.86
2022-11-14T06:09:20.573Z,98759.94
2022-11-14T06:12:08.871Z,98760.66
2022-11-14T06:14:55.716Z,98761.84
2022-11-14T06:17:42.727Z,98760.92
2022-11-14T06:20:29.756Z,98764.13
2022-11-14T06:23:21.945Z,98762.52
2022-11-14T06:26:19.708Z,98757.78
2022-11-14T06:29:07.911Z,98757.32
2022-11-14T06:31:54.945Z,98752.25
2022-11-14T06:34:41.950Z,98753.35
2022-11-14T06:37:33.387Z,98754.71
2022-11-14T06:40:21.088Z,98753.91
2022-11-14T06:43:07.670Z,98756.27
2022-11-14T06:45:55.742Z,98761.42
2022-11-14T06:48:44.144Z,98762.89
2022-11-14T06:51:31.336Z,98766.66
2022-11-14T06:54:18.030Z,98771.75
2022-11-14T06:57:04.622Z,98773.67
2022-11-14T06:59:51.540Z,98774.05
2022-11-14T07:02:38.383Z,98776.64
2022-11-14T07:05:24.958Z,98777.50
2022-11-14T07:08:11.661Z,98776.65
2022-11-14T07:11:08.028Z,98776.58
2022-11-14T07:13:57.942Z,98773.15
2022-11-14T07:16:45.192Z,98770.71
2022-11-14T07:19:31.989Z,98771.39
2022-11-14T07:22:19.083Z,98765.92
2022-11-14T07:25:06.278Z,98761.64
2022-11-14T07:27:52.668Z,98757.77
2022-11-14T07:30:39.666Z,98757.35
2022-11-14T07:33:26.960Z,98758.58
2022-11-14T07:36:16.423Z,98759.88
2022-11-14T07:39:03.480Z,98761.54
2022-11-14T07:41:50.411Z,98756.16
2022-11-14T07:44:37.323Z,98753.79
2022-11-14T07:47:24.435Z,98755.30
2022-11-14T07:50:15.119Z,98759.61
2022-11-14T07:53:04.832Z,98760.83
2022-11-14T07:55:52.913Z,98759.88
2022-11-14T07:58:42.039Z,98758.75
2022-11-14T08:01:30.696Z,98753.56
2022-11-14T08:04:17.813Z,98752.83
2022-11-14T08:07:04.995Z,98749.88
2022-11-14T08:09:52.147Z,98746.23
2022-11-14T08:12:40.906Z,98747.69
2022-11-14T08:15:28.249Z,98747.73
2022-11-14T08:18:15.492Z,98743.50
2022-11-14T08:21:05.421Z,98739.03
2022-11-14T08:23:53.094Z,98738.72
2022-11-14T08:26:40.004Z,98739.63
2022-11-14T08:29:27.072Z,98732.12
2022-11-14T08:32:20.471Z,98731.48
2022-11-14T08:35:08.697Z,98740.60
2022-11-14T08:37:58.005Z,98741.11
2022-11-14T08:40:45.176Z,98738.69
2022-11-14T08:43:32.716Z,98735.72
2022-11-14T08:46:19.901Z,98729.11
2022-11-14T08:49:06.661Z,98722.48
2022-11-14T08:51:54.407Z,98718.33
2022-11-14T08:54:41.416Z,98716.38
2022-11-14T08:57:28.813Z,98710.70
2022-11-14T09:00:16.392Z,98707.98
2022-11-14T09:03:14.833Z,98705.84
2022-11-14T09:06:02.771Z,98706.63
2022-11-14T09:08:50.002Z,98705.27
2022-11-14T09:11:36.642Z,98697.42
2022-11-14T09:14:23.873Z,98696.73
2022-11-14T09:17:11.183Z,98694.21
2022-11-14T09:19:58.700Z,98692.04
2022-11-14T09:22:47.156Z,98690.26
2022-11-14T09:25:34.239Z,98689.26
2022-11-14T09:28:24.321Z,98687.65
2022-11-14T09:31:13.866Z,98678.44
2022-11-14T09:34:00.974Z,98675.66
2022-11-14T09:36:48.255Z,98671.15
2022-11-14T09:39:39.754Z,98670.38
2022-11-14T09:42:55.209Z,98665.27
2022-11-14T09:45:48.409Z,98664.13
2022-11-14T09:48:35.603Z,98664.24
2022-11-14T09:51:28.663Z,98662.27
2022-11-14T09:54:29.085Z,98661.30
2022-11-14T09:57:18.420Z,98655.76
2022-11-14T10:00:16.368Z,98647.75
2022-11-14T10:03:22.648Z,98644.10
2022-11-14T10:06:24.796Z,98640.36
2022-11-14T10:09:36.094Z,98632.79
2022-11-14T10:12:31.984Z,98634.41
2022-11-14T10:15:43.273Z,98631.37
2022-11-14T10:18:33.545Z,98626.18
2022-11-14T10:21:50.846Z,98621.89
2022-11-14T10:25:10.612Z,98613.29
2022-11-14T10:28:10.019Z,98607.96
2022-11-14T10:31:14.666Z,98606.49
2022-11-14T10:34:22.864Z,98605.94
2022-11-14T10:37:23.560Z,98605.21
2022-11-14T10:40:19.881Z,98600.36
2022-11-14T10:43:18.500Z,98594.80
2022-11-14T10:46:15.535Z,98594.36
2022-11-14T10:49:03.621Z,98591.67
2022-11-14T10:51:56.171Z,98590.06
2022-11-14T10:54:53.591Z,98582.73
2022-11-14T10:57:41.164Z,98584.35
2022-11-14T11:00:28.472Z,98580.30
2022-11-14T11:03:15.919Z,98566.53
2022-11-14T11:06:03.333Z,98570.02
2022-11-14T11:09:08.950Z,98573.16
2022-11-14T11:12:02.545Z,98573.92
2022-11-14T11:15:11.582Z,98570.16
2022-11-14T11:18:01.175Z,98568.66
2022-11-14T11:21:02.484Z,98566.45
2022-11-14T11:23:58.050Z,98564.30
2022-11-14T11:26:45.025Z,98562.31
2022-11-14T11:29:32.561Z,98560.41
2022-11-14T11:32:29.573Z,98553.79
2022-11-14T11:35:18.083Z,98550.97
2022-11-14T11:38:06.873Z,98547.73
2022-11-14T11:41:02.495Z,98551.59
2022-11-14T11:43:57.250Z,98553.62
2022-11-14T11:46:52.627Z,98549.63
2022-11-14T11:49:53.751Z,98547.52
2022-11-14T11:52:49.463Z,98546.79
2022-11-14T11:55:44.520Z,98538.52
2022-11-14T11:58:40.756Z,98531.45
2022-11-14T12:01:28.087Z,98527.96
2022-11-14T12:04:15.249Z,98525.78
2022-11-14T12:07:12.519Z,98524.04
2022-11-14T12:10:11.374Z,98519.71
2022-11-14T12:13:20.279Z,98514.70
2022-11-14T12:16:23.906Z,98511.13
2022-11-14T12:19:33.570Z,98510.25
2022-11-14T12:22:23.572Z,98509.52
2022-11-14T12:25:25.736Z,98509.80
2022-11-14T12:28:18.280Z,98510.29
2022-11-14T12:31:11.171Z,98511.10
2022-11-14T12:34:02.175Z,98510.14
2022-11-14T12:36:49.404Z,98510.55
2022-11-14T12:39:37.511Z,98508.36
2022-11-14T12:42:25.159Z,98505.35
2022-11-14T12:45:36.795Z,98502.48
2022-11-14T12:48:26.353Z,98502.51
2022-11-14T12:51:25.745Z,98503.80
2022-11-14T12:54:47.155Z,98500.84
2022-11-14T12:57:48.341Z,98494.27
2022-11-14T13:00:47.247Z,98494.67
2022-11-14T13:04:09.361Z,98493.31
2022-11-14T13:07:00.007Z,98491.47
2022-11-14T13:10:13.779Z,98490.35
2022-11-14T13:13:28.685Z,98493.83
2022-11-14T13:16:45.269Z,98492.81
2022-11-14T13:19:54.008Z,98491.67
2022-11-14T13:22:42.923Z,98485.76
2022-11-14T13:25:30.169Z,98488.68
2022-11-14T13:28:52.757Z,98486.77
2022-11-14T13:31:47.242Z,98479.17
2022-11-14T13:34:44.514Z,98477.20
2022-11-14T13:37:50.274Z,98481.23
2022-11-14T13:40:40.704Z,98480.14
2022-11-14T13:43:46.518Z,98479.95
2022-11-14T13:47:08.651Z,98477.67
2022-11-14T13:50:06.802Z,98476.84
2022-11-14T13:52:54.632Z,98475.91
2022-11-14T13:56:04.833Z,98476.27
2022-11-14T13:59:10.392Z,98479.04
2022-11-14T14:02:21.068Z,98479.11
2022-11-14T14:05:29.518Z,98476.05
2022-11-14T14:08:39.869Z,98472.36
2022-11-14T14:11:46.975Z,98472.45
2022-11-14T14:14:49.748Z,98470.38
2022-11-14T14:17:45.708Z,98474.06
2022-11-14T14:20:38.401Z,98471.96
2022-11-14T14:23:44.383Z,98467.92
2022-11-14T14:26:56.617Z,98467.46
2022-11-14T14:29:53.005Z,98462.33
2022-11-14T14:32:40.646Z,98460.02
2022-11-14T14:35:35.575Z,98459.25
2022-11-14T14:38:28.210Z,98461.14
2022-11-14T14:41:19.094Z,98462.22
2022-11-14T14:44:06.863Z,98460.36
2022-11-14T14:46:54.862Z,98457.92
2022-11-14T14:49:42.217Z,98452.88
2022-11-14T14:52:31.564Z,98449.06
2022-11-14T14:55:27.110Z,98445.27
2022-11-14T14:58:23.243Z,98446.64
2022-11-14T15:01:23.870Z,98447.35
2022-11-14T15:04:15.946Z,98446.89
2022-11-14T15:07:04.725Z,98447.35
2022-11-14T15:09:58.455Z,98442.25
2022-11-14T15:12:45.729Z,98439.71
2022-11-14T15:15:34.765Z,98440.39
2022-11-14T15:18:30.896Z,98443.14
2022-11-14T15:21:21.944Z,98438.14
2022-11-14T15:24:17.897Z,98433.70
2022-11-14T15:27:26.240Z,98429.41
2022-11-14T15:30:40.035Z,98431.64
2022-11-14T15:33:34.206Z,98431.25
2022-11-14T15:36:22.587Z,98435.61
2022-11-14T15:39:28.517Z,98431.15
2022-11-14T15:42:27.200Z,98428.08
2022-11-14T15:45:28.905Z,98429.56
2022-11-14T15:48:19.448Z,98431.20
2022-11-14T15:51:06.628Z,98431.38
2022-11-14T15:53:54.963Z,98433.48
2022-11-14T15:56:42.604Z,98443.31
2022-11-14T15:59:31.212Z,98446.53
2022-11-14T16:02:22.860Z,98445.76
2022-11-14T16:05:14.210Z,98442.59
2022-11-14T16:08:01.618Z,98440.94
2022-11-14T16:10:52.019Z,98434.59
2022-11-14T16:13:39.827Z,98433.82
2022-11-14T16:16:26.805Z,98439.36
2022-11-14T16:19:19.113Z,98438.77
2022-11-14T16:22:07.599Z,98439.58
2022-11-14T16:24:54.781Z,98438.23
2022-11-14T16:27:42.100Z,98437.89
2022-11-14T16:30:31.842Z,98436.17
2022-11-14T16:33:19.940Z,98433.04
2022-11-14T16:36:07.104Z,98432.05
2022-11-14T16:39:00.017Z,98433.41
2022-11-14T16:41:48.589Z,98436.27
2022-11-14T16:44:41.110Z,98435.46
2022-11-14T16:47:37.392Z,98433.80
2022-11-14T16:50:24.866Z,98435.27
2022-11-14T16:53:11.770Z,98434.30
2022-11-14T16:55:58.753Z,98434.39
2022-11-14T16:58:45.286Z,98437.69
2022-11-14T17:01:33.237Z,98439.70
2022-11-14T17:04:22.556Z,98439.34
2022-11-14T17:07:11.880Z,98435.68
2022-11-14T17:10:01.005Z,98438.97
2022-11-14T17:12:48.345Z,98436.90
2022-11-14T17:15:36.248Z,98432.79
2022-11-14T17:18:23.561Z,98430.90
2022-11-14T17:21:13.604Z,98427.41
2022-11-14T17:24:01.775Z,98427.66
2022-11-14T17:26:49.306Z,98421.86
2022-11-14T17:29:36.507Z,98418.06
2022-11-14T17:32:23.566Z,98420.27
2022-11-14T17:35:11.073Z,98420.99
2022-11-14T17:38:00.458Z,98422.27
2022-11-14T17:40:47.631Z,98421.95
2022-11-14T17:43:39.541Z,98420.77
2022-11-14T17:46:28.202Z,98418.20
2022-11-14T17:49:15.253Z,98413.87
2022-11-14T17:52:02.240Z,98414.33
2022-11-14T17:54:49.120Z,98413.04
2022-11-14T17:57:36.276Z,98410.30
2022-11-14T18:00:24.516Z,98407.89
2022-11-14T18:03:12.700Z,98402.36
2022-11-14T18:06:08.373Z,98398.56
2022-11-14T18:08:56.046Z,98397.32
2022-11-14T18:11:42.723Z,98394.00
2022-11-14T18:14:29.649Z,98389.16
2022-11-14T18:17:16.566Z,98386.64
2022-11-14T18:20:03.734Z,98382.39
2022-11-14T18:22:50.458Z,98380.55
2022-11-14T18:25:37.583Z,98377.74
2022-11-14T18:28:24.467Z,98373.21
2022-11-14T18:31:12.452Z,98371.88
2022-11-14T18:33:59.737Z,98370.76
2022-11-14T18:36:47.378Z,98365.05
2022-11-14T18:39:34.225Z,98361.05
2022-11-14T18:42:20.493Z,98362.47
2022-11-14T18:45:07.655Z,98364.88
2022-11-14T18:47:54.838Z,98364.88
2022-11-14T18:50:41.389Z,98366.95
2022-11-14T18:53:32.628Z,98367.46
2022-11-14T18:56:21.402Z,98366.28
2022-11-14T18:59:09.129Z,98367.65
2022-11-14T19:01:56.444Z,98365.91
2022-11-14T19:04:43.268Z,98366.77
2022-11-14T19:07:30.630Z,98364.45
2022-11-14T19:10:18.108Z,98366.48
2022-11-14T19:13:04.660Z,98369.01
2022-11-14T19:15:51.522Z,98365.11
2022-11-14T19:18:38.218Z,98364.95
2022-11-14T19:21:25.108Z,98366.46
2022-11-14T19:24:12.015Z,98365.98
2022-11-14T19:26:59.455Z,98365.85
2022-11-14T19:29:46.572Z,98364.35
2022-11-14T19:32:34.644Z,98364.41
2022-11-14T19:35:21.608Z,98365.70
2022-11-14T19:38:09.073Z,98363.79
2022-11-14T19:40:58.651Z,98359.47
2022-11-14T19:43:49.746Z,98358.84
2022-11-14T19:46:36.991Z,98359.20
2022-11-14T19:49:27.314Z,98363.19
2022-11-14T19:52:14.156Z,98360.54
2022-11-14T19:55:00.876Z,98359.95
2022-11-14T19:57:48.035Z,98361.48
2022-11-14T20:00:34.511Z,98358.86
2022-11-14T20:03:21.534Z,98360.99
2022-11-14T20:06:26.360Z,98363.20
2022-11-14T20:09:13.369Z,98359.21
2022-11-14T20:11:59.686Z,98353.88
2022-11-14T20:14:46.429Z,98353.11
2022-11-14T20:17:33.309Z,98354.08
2022-11-14T20:20:20.330Z,98354.70
2022-11-14T20:23:07.133Z,98355.33
2022-11-14T20:25:54.243Z,98352.55
2022-11-14T20:28:42.371Z,98349.81
2022-11-14T20:31:30.735Z,98347.11
2022-11-14T20:34:17.384Z,98344.58
2022-11-14T20:37:10.893Z,98344.08
2022-11-14T20:39:58.220Z,98346.22
2022-11-14T20:42:49.189Z,98342.36
2022-11-14T20:45:35.632Z,98339.13
2022-11-14T20:48:22.546Z,98339.14
2022-11-14T20:51:20.665Z,98338.39
2022-11-14T20:54:09.387Z,98340.01
2022-11-14T20:56:55.995Z,98341.92
2022-11-14T20:59:42.842Z,98338.41
2022-11-14T21:02:29.438Z,98340.67
2022-11-14T21:05:16.357Z,98337.06
2022-11-14T21:08:03.678Z,98336.33
2022-11-14T21:10:50.929Z,98334.48
2022-11-14T21:13:57.826Z,98331.36
2022-11-14T21:16:44.419Z,98331.94
2022-11-14T21:19:31.062Z,98327.67
2022-11-14T21:22:17.847Z,98329.83
2022-11-14T21:25:05.132Z,98328.45
2022-11-14T21:27:51.996Z,98326.27
2022-11-14T21:30:38.792Z,98321.75
2022-11-14T21:33:27.808Z,98322.47
2022-11-14T21:39:22.549Z,98316.31
2022-11-14T21:42:12.897Z,98313.16
2022-11-14T21:45:02.215Z,98315.88
2022-11-14T21:47:48.609Z,98314.50
2022-11-14T21:50:35.201Z,98314.27
2022-11-14T21:53:21.637Z,98311.03
2022-11-14T21:56:19.235Z,98307.48
2022-11-14T21:59:13.187Z,98306.31
2022-11-14T22:02:18.637Z,98305.73
2022-11-14T22:05:05.312Z,98303.14
2022-11-14T22:07:52.042Z,98298.36
2022-11-14T22:10:38.763Z,98295.55
2022-11-14T22:13:25.486Z,98289.92
2022-11-14T22:16:16.154Z,98291.86
2022-11-14T22:19:05.531Z,98288.90
2022-11-14T22:21:53.525Z,98282.91
2022-11-14T22:24:41.564Z,98278.41
2022-11-14T22:27:28.350Z,98278.44
2022-11-14T22:30:15.044Z,98275.92
2022-11-14T22:33:02.076Z,98271.96
2022-11-14T22:35:48.762Z,98264.69
2022-11-14T22:38:37.228Z,98263.38
2022-11-14T22:41:31.520Z,98261.37
2022-11-14T22:44:18.964Z,98259.65
2022-11-14T22:47:05.740Z,98259.01
2022-11-14T22:49:52.676Z,98261.18
2022-11-14T22:52:38.934Z,98258.92
2022-11-14T22:55:25.392Z,98257.77
2022-11-14T22:58:12.286Z,98266.96
2022-11-14T23:00:59.411Z,98266.86
2022-11-14T23:03:48.376Z,98263.36
2022-11-14T23:06:35.381Z,98260.86
2022-11-14T23:09:22.468Z,98256.95
2022-11-14T23:12:09.281Z,98251.52
2022-11-14T23:14:56.055Z,98253.60
2022-11-14T23:17:43.145Z,98253.30
2022-11-14T23:20:30.031Z,98252.17
2022-11-14T23:23:17.195Z,98251.13
2022-11-14T23:26:10.441Z,98248.44
2022-11-14T23:28:57.419Z,98247.52
2022-11-14T23:31:44.087Z,98247.27
2022-11-14T23:34:30.874Z,98244.74
2022-11-14T23:37:18.059Z,98241.44
2022-11-14T23:40:05.117Z,98237.27
2022-11-14T23:42:51.762Z,98241.02
2022-11-14T23:45:37.992Z,98241.78
2022-11-14T23:48:25.034Z,98241.14
2022-11-14T23:51:14.007Z,98243.13
2022-11-14T23:54:00.853Z,98242.33
2022-11-14T23:56:48.025Z,98241.98
2022-11-14T23:59:34.708Z,98236.58
